Climatologie pour Saint-Brevin les Pins
Jour • Résumé pour juin 3, 2017 Système :  Métrique    Anglais   Mixte
« - 1 jour
+ 1 jour »
Jour Semaine Mois Année Personnalisé
  Maximum : Minimum : Moyenne :
Température sous abri : 20.3 °C 13.9 °C 16.9 °C
Point de rosée : 16.1 °C 11.5 °C 14.2 °C
Humidité : 96 % 62 % 85 %
Vitesse du vent : 22.5 km/h 0.0 km/h 6.8 km/h
Rafale : 38.6 km/h - -
Direction :- - WSW
Pression : 1019.5 hPa 1015.8 hPa -
Précipitations : 0.0 mm    
Historical Graphs
 
 
Tableau de données pour juin 3, 2017
Heure Tempé Pt rosée Pression Vent Vitesse Rafale Humidité Taux pluie (/hr) Soleil
00:00 17.3 °C 15.4 °C 1016.8 hPa NW 6.4 km/h 14.5 km/h 89 % 0.0 mm 0 W/m2
00:05 17.3 °C 15.4 °C 1016.8 hPa WNW 4.8 km/h 14.5 km/h 89 % 0.0 mm 0 W/m2
00:10 17.3 °C 15.4 °C 1016.8 hPa WNW 1.6 km/h 14.5 km/h 89 % 0.0 mm 0 W/m2
00:15 17.2 °C 15.4 °C 1016.8 hPa Calm   11.3 km/h 89 % 0.0 mm 0 W/m2
00:20 17.2 °C 15.3 °C 1016.8 hPa Calm   12.9 km/h 89 % 0.0 mm 0 W/m2
00:25 17.2 °C 15.3 °C 1016.8 hPa WNW 9.7 km/h 12.9 km/h 89 % 0.0 mm 0 W/m2
00:30 17.2 °C 15.3 °C 1016.8 hPa NW 1.6 km/h 12.9 km/h 89 % 0.0 mm 0 W/m2
00:35 17.1 °C 15.5 °C 1016.8 hPa Calm   12.9 km/h 90 % 0.0 mm 0 W/m2
00:40 17.1 °C 15.5 °C 1016.8 hPa WNW 4.8 km/h 11.3 km/h 90 % 0.0 mm 0 W/m2
00:45 17.1 °C 15.4 °C 1016.8 hPa Calm   11.3 km/h 90 % 0.0 mm 0 W/m2
00:50 17.1 °C 15.4 °C 1016.8 hPa NNW 8.0 km/h 14.5 km/h 90 % 0.0 mm 0 W/m2
00:55 17.1 °C 15.4 °C 1016.8 hPa WNW 3.2 km/h 14.5 km/h 90 % 0.0 mm 0 W/m2
01:00 17.1 °C 15.4 °C 1016.8 hPa NW 1.6 km/h 11.3 km/h 90 % 0.0 mm 0 W/m2
01:10 17.0 °C 15.5 °C 1016.8 hPa WNW 8.0 km/h 9.7 km/h 91 % 0.0 mm 0 W/m2
01:15 17.1 °C 15.6 °C 1016.8 hPa WNW 4.8 km/h 14.5 km/h 91 % 0.0 mm 0 W/m2
01:20 17.1 °C 15.6 °C 1017.2 hPa West 1.6 km/h 14.5 km/h 91 % 0.0 mm 0 W/m2
01:25 17.1 °C 15.6 °C 1017.2 hPa West 4.8 km/h 11.3 km/h 91 % 0.0 mm 0 W/m2
01:35 17.1 °C 15.7 °C 1016.8 hPa West 1.6 km/h 8.0 km/h 92 % 0.0 mm 0 W/m2
01:40 17.1 °C 15.8 °C 1016.8 hPa NW 3.2 km/h 8.0 km/h 92 % 0.0 mm 0 W/m2
01:45 17.2 °C 15.9 °C 1016.8 hPa WNW 6.4 km/h 9.7 km/h 92 % 0.0 mm 0 W/m2
01:50 17.2 °C 15.9 °C 1016.8 hPa West 3.2 km/h 9.7 km/h 92 % 0.0 mm 0 W/m2
01:55 17.2 °C 15.9 °C 1016.8 hPa West 4.8 km/h 9.7 km/h 92 % 0.0 mm 0 W/m2
02:00 17.2 °C 15.9 °C 1016.8 hPa WNW 6.4 km/h 9.7 km/h 92 % 0.0 mm 0 W/m2
02:05 17.2 °C 15.9 °C 1016.8 hPa WNW 3.2 km/h 9.7 km/h 92 % 0.0 mm 0 W/m2
02:10 17.2 °C 16.0 °C 1016.8 hPa Calm   8.0 km/h 93 % 0.0 mm 0 W/m2
02:15 17.1 °C 16.0 °C 1016.8 hPa WNW 3.2 km/h 6.4 km/h 93 % 0.0 mm 0 W/m2
02:20 17.1 °C 16.0 °C 1016.5 hPa West 4.8 km/h 9.7 km/h 93 % 0.0 mm 0 W/m2
02:25 17.2 °C 16.0 °C 1016.5 hPa Calm   9.7 km/h 93 % 0.0 mm 0 W/m2
02:30 17.1 °C 16.0 °C 1016.5 hPa West 6.4 km/h 9.7 km/h 93 % 0.0 mm 0 W/m2
02:35 17.1 °C 16.1 °C 1016.5 hPa Calm   8.0 km/h 94 % 0.0 mm 0 W/m2
02:40 17.1 °C 16.1 °C 1016.1 hPa Calm   8.0 km/h 94 % 0.0 mm 0 W/m2
02:45 17.0 °C 16.0 °C 1016.1 hPa NW 4.8 km/h 9.7 km/h 94 % 0.0 mm 0 W/m2
02:50 17.0 °C 16.0 °C 1016.1 hPa WNW 6.4 km/h 9.7 km/h 94 % 0.0 mm 0 W/m2
02:55 17.0 °C 16.0 °C 1016.1 hPa WNW 8.0 km/h 9.7 km/h 94 % 0.0 mm 0 W/m2
03:00 17.1 °C 16.1 °C 1016.1 hPa NW 1.6 km/h 11.3 km/h 94 % 0.0 mm 0 W/m2
03:05 17.1 °C 16.1 °C 1016.1 hPa WNW 4.8 km/h 11.3 km/h 94 % 0.0 mm 0 W/m2
03:10 17.0 °C 16.0 °C 1016.1 hPa WNW 8.0 km/h 9.7 km/h 94 % 0.0 mm 0 W/m2
03:15 17.0 °C 16.0 °C 1016.1 hPa WNW 11.3 km/h 12.9 km/h 94 % 0.0 mm 0 W/m2
03:20 17.0 °C 16.0 °C 1016.1 hPa WNW 6.4 km/h 12.9 km/h 94 % 0.0 mm 0 W/m2
03:25 17.0 °C 16.0 °C 1015.8 hPa WNW 6.4 km/h 11.3 km/h 94 % 0.0 mm 0 W/m2
03:30 17.0 °C 16.0 °C 1015.8 hPa WNW 8.0 km/h 9.7 km/h 94 % 0.0 mm 0 W/m2
03:35 17.0 °C 16.0 °C 1015.8 hPa WNW 4.8 km/h 12.9 km/h 94 % 0.0 mm 0 W/m2
03:40 17.0 °C 16.0 °C 1015.8 hPa WNW 8.0 km/h 12.9 km/h 94 % 0.0 mm 0 W/m2
03:45 16.9 °C 16.0 °C 1015.8 hPa NW 8.0 km/h 11.3 km/h 94 % 0.0 mm 0 W/m2
03:50 16.9 °C 16.0 °C 1015.8 hPa WNW 3.2 km/h 9.7 km/h 94 % 0.0 mm 0 W/m2
04:00 16.9 °C 15.9 °C 1015.8 hPa NNW 3.2 km/h 16.1 km/h 94 % 0.0 mm 0 W/m2
04:05 16.9 °C 15.9 °C 1015.8 hPa NW 6.4 km/h 16.1 km/h 94 % 0.0 mm 0 W/m2
04:10 16.9 °C 15.9 °C 1015.8 hPa WNW 3.2 km/h 11.3 km/h 94 % 0.0 mm 0 W/m2
04:15 16.8 °C 15.9 °C 1015.8 hPa WNW 9.7 km/h 12.9 km/h 94 % 0.0 mm 0 W/m2
04:20 16.8 °C 15.9 °C 1015.8 hPa WNW 9.7 km/h 16.1 km/h 94 % 0.0 mm 0 W/m2
04:25 16.8 °C 15.9 °C 1015.8 hPa WNW 3.2 km/h 16.1 km/h 94 % 0.0 mm 0 W/m2
04:30 16.8 °C 15.8 °C 1015.8 hPa WNW 6.4 km/h 12.9 km/h 94 % 0.0 mm 0 W/m2
04:35 16.8 °C 15.8 °C 1015.8 hPa NW 8.0 km/h 12.9 km/h 94 % 0.0 mm 0 W/m2
04:40 16.7 °C 15.8 °C 1015.8 hPa West 6.4 km/h 12.9 km/h 94 % 0.0 mm 0 W/m2
04:45 16.7 °C 15.8 °C 1015.8 hPa WNW 4.8 km/h 12.9 km/h 94 % 0.0 mm 0 W/m2
04:50 16.7 °C 15.8 °C 1015.8 hPa WNW 1.6 km/h 11.3 km/h 94 % 0.0 mm 0 W/m2
04:55 16.7 °C 15.8 °C 1015.8 hPa WNW 9.7 km/h 11.3 km/h 94 % 0.0 mm 0 W/m2
05:00 16.7 °C 15.8 °C 1015.8 hPa WNW 3.2 km/h 11.3 km/h 94 % 0.0 mm 0 W/m2
05:05 16.7 °C 15.8 °C 1015.8 hPa WNW 8.0 km/h 11.3 km/h 94 % 0.0 mm 0 W/m2
05:10 16.7 °C 15.8 °C 1015.8 hPa Calm   9.7 km/h 94 % 0.0 mm 0 W/m2
05:15 16.7 °C 15.7 °C 1015.8 hPa WNW 6.4 km/h 9.7 km/h 94 % 0.0 mm 0 W/m2
05:20 16.7 °C 15.7 °C 1015.8 hPa WNW 8.0 km/h 11.3 km/h 94 % 0.0 mm 0 W/m2
05:25 16.7 °C 15.7 °C 1015.8 hPa Calm   11.3 km/h 94 % 0.0 mm 0 W/m2
05:30 16.6 °C 15.6 °C 1015.8 hPa Calm   9.7 km/h 94 % 0.0 mm 0 W/m2
05:35 16.5 °C 15.5 °C 1015.8 hPa WNW 4.8 km/h 6.4 km/h 94 % 0.0 mm 0 W/m2
05:40 16.4 °C 15.6 °C 1015.8 hPa Calm   6.4 km/h 95 % 0.0 mm 0 W/m2
05:45 16.5 °C 15.7 °C 1015.8 hPa Calm   6.4 km/h 95 % 0.0 mm 0 W/m2
05:50 16.6 °C 15.8 °C 1015.8 hPa NW 1.6 km/h 6.4 km/h 95 % 0.0 mm 0 W/m2
05:55 16.6 °C 15.8 °C 1015.8 hPa WNW 1.6 km/h 8.0 km/h 95 % 0.0 mm 0 W/m2
06:00 16.7 °C 15.9 °C 1015.8 hPa Calm   8.0 km/h 95 % 0.0 mm 0 W/m2
06:05 16.7 °C 15.9 °C 1015.8 hPa Calm   4.8 km/h 95 % 0.0 mm 0 W/m2
06:10 16.7 °C 16.0 °C 1015.8 hPa Calm   8.0 km/h 96 % 0.0 mm 0 W/m2
06:15 16.7 °C 16.0 °C 1015.8 hPa NNW 4.8 km/h 8.0 km/h 96 % 0.0 mm 0 W/m2
06:20 16.7 °C 16.1 °C 1015.8 hPa Calm   6.4 km/h 96 % 0.0 mm 0 W/m2
06:25 16.7 °C 16.0 °C 1015.8 hPa North 8.0 km/h 9.7 km/h 96 % 0.0 mm 0 W/m2
06:30 16.5 °C 15.9 °C 1015.8 hPa NNE 4.8 km/h 12.9 km/h 96 % 0.0 mm 0 W/m2
06:35 16.4 °C 15.6 °C 1016.1 hPa NNE 6.4 km/h 12.9 km/h 95 % 0.0 mm 0 W/m2
06:40 16.2 °C 15.4 °C 1015.8 hPa NNE 1.6 km/h 11.3 km/h 95 % 0.0 mm 0 W/m2
06:45 16.1 °C 15.3 °C 1016.1 hPa NNE 11.3 km/h 12.9 km/h 95 % 0.0 mm 0 W/m2
06:50 16.0 °C 15.0 °C 1016.1 hPa NNE 6.4 km/h 12.9 km/h 94 % 0.0 mm 5 W/m2
06:55 15.9 °C 14.8 °C 1016.1 hPa North 4.8 km/h 12.9 km/h 93 % 0.0 mm 9 W/m2
07:00 15.9 °C 14.8 °C 1016.1 hPa NNE 9.7 km/h 14.5 km/h 93 % 0.0 mm 12 W/m2
07:05 15.8 °C 14.5 °C 1016.1 hPa Calm   14.5 km/h 92 % 0.0 mm 16 W/m2
07:10 15.8 °C 14.5 °C 1016.1 hPa North 3.2 km/h 11.3 km/h 92 % 0.0 mm 19 W/m2
07:20 15.8 °C 14.3 °C 1015.8 hPa NE 3.2 km/h 14.5 km/h 91 % 0.0 mm 30 W/m2
07:25 15.7 °C 14.3 °C 1015.8 hPa NE 4.8 km/h 12.9 km/h 91 % 0.0 mm 33 W/m2
07:30 15.8 °C 14.3 °C 1016.1 hPa NE 8.0 km/h 12.9 km/h 91 % 0.0 mm 26 W/m2
07:35 15.8 °C 14.1 °C 1016.1 hPa NE 3.2 km/h 11.3 km/h 90 % 0.0 mm 32 W/m2
07:40 15.8 °C 14.2 °C 1016.1 hPa NE 6.4 km/h 11.3 km/h 90 % 0.0 mm 30 W/m2
07:45 15.9 °C 14.3 °C 1016.5 hPa NNE 6.4 km/h 8.0 km/h 90 % 0.0 mm 33 W/m2
07:50 15.9 °C 14.3 °C 1016.5 hPa NNE 4.8 km/h 11.3 km/h 90 % 0.0 mm 35 W/m2
07:55 15.9 °C 14.3 °C 1016.5 hPa NNE 1.6 km/h 11.3 km/h 90 % 0.0 mm 70 W/m2
08:00 15.9 °C 14.3 °C 1016.5 hPa Calm   11.3 km/h 90 % 0.0 mm 69 W/m2
08:05 16.1 °C 14.4 °C 1016.5 hPa NNE 6.4 km/h 11.3 km/h 90 % 0.0 mm 72 W/m2
08:10 16.1 °C 14.2 °C 1016.5 hPa NE 9.7 km/h 12.9 km/h 89 % 0.0 mm 74 W/m2
08:15 16.1 °C 14.2 °C 1016.5 hPa North 1.6 km/h 12.9 km/h 89 % 0.0 mm 70 W/m2
08:20 16.1 °C 14.3 °C 1016.5 hPa North 6.4 km/h 12.9 km/h 89 % 0.0 mm 81 W/m2
08:25 16.2 °C 14.4 °C 1016.5 hPa North 8.0 km/h 14.5 km/h 89 % 0.0 mm 72 W/m2
08:30 16.3 °C 14.5 °C 1016.5 hPa Calm   14.5 km/h 89 % 0.0 mm 69 W/m2
08:35 16.3 °C 14.5 °C 1016.5 hPa Calm   9.7 km/h 89 % 0.0 mm 74 W/m2
08:40 16.3 °C 14.5 °C 1016.8 hPa North 6.4 km/h 9.7 km/h 89 % 0.0 mm 74 W/m2
08:45 16.3 °C 14.3 °C 1016.8 hPa North 9.7 km/h 9.7 km/h 88 % 0.0 mm 69 W/m2
08:50 16.3 °C 14.5 °C 1016.8 hPa NE 4.8 km/h 9.7 km/h 89 % 0.0 mm 69 W/m2
08:55 16.3 °C 14.5 °C 1016.8 hPa North 1.6 km/h 9.7 km/h 89 % 0.0 mm 30 W/m2
09:05 16.2 °C 14.5 °C 1016.8 hPa North 3.2 km/h 11.3 km/h 90 % 0.0 mm 25 W/m2
09:10 16.1 °C 14.4 °C 1016.8 hPa North 6.4 km/h 11.3 km/h 90 % 0.0 mm 26 W/m2
09:15 16.0 °C 14.4 °C 1016.8 hPa NNE 3.2 km/h 9.7 km/h 90 % 0.0 mm 46 W/m2
09:20 16.1 °C 14.6 °C 1016.8 hPa North 1.6 km/h 8.0 km/h 91 % 0.0 mm 35 W/m2
09:25 16.1 °C 14.6 °C 1016.8 hPa North 1.6 km/h 8.0 km/h 91 % 0.0 mm 47 W/m2
09:30 16.1 °C 14.8 °C 1017.2 hPa NNW 1.6 km/h 8.0 km/h 92 % 0.0 mm 42 W/m2
09:35 16.0 °C 14.7 °C 1017.2 hPa North 3.2 km/h 8.0 km/h 92 % 0.0 mm 33 W/m2
09:40 16.1 °C 14.8 °C 1017.2 hPa North 4.8 km/h 9.7 km/h 92 % 0.0 mm 47 W/m2
09:45 16.0 °C 14.7 °C 1017.2 hPa North 3.2 km/h 9.7 km/h 92 % 0.0 mm 46 W/m2
09:50 16.0 °C 14.7 °C 1017.2 hPa Calm   9.7 km/h 92 % 0.0 mm 54 W/m2
09:55 16.1 °C 14.8 °C 1017.2 hPa North 1.6 km/h 9.7 km/h 92 % 0.0 mm 54 W/m2
10:00 16.1 °C 14.9 °C 1017.2 hPa Calm   8.0 km/h 93 % 0.0 mm 33 W/m2
10:05 16.1 °C 14.9 °C 1017.2 hPa NNE 4.8 km/h 14.5 km/h 93 % 0.0 mm 30 W/m2
10:10 16.0 °C 14.9 °C 1017.2 hPa North 6.4 km/h 14.5 km/h 93 % 0.0 mm 47 W/m2
10:15 15.9 °C 14.6 °C 1017.2 hPa NE 9.7 km/h 11.3 km/h 92 % 0.0 mm 35 W/m2
10:20 15.8 °C 14.5 °C 1017.2 hPa ENE 3.2 km/h 12.9 km/h 92 % 0.0 mm 46 W/m2
10:25 15.8 °C 14.5 °C 1017.2 hPa North 3.2 km/h 12.9 km/h 92 % 0.0 mm 40 W/m2
10:30 15.8 °C 14.5 °C 1017.5 hPa North 4.8 km/h 12.9 km/h 92 % 0.0 mm 37 W/m2
10:35 15.7 °C 14.3 °C 1017.5 hPa NNE 11.3 km/h 17.7 km/h 91 % 0.0 mm 46 W/m2
10:40 15.7 °C 14.3 °C 1017.2 hPa North 3.2 km/h 17.7 km/h 91 % 0.0 mm 39 W/m2
10:45 15.7 °C 14.2 °C 1017.5 hPa North 11.3 km/h 14.5 km/h 91 % 0.0 mm 33 W/m2
10:50 15.6 °C 14.1 °C 1017.5 hPa North 6.4 km/h 14.5 km/h 91 % 0.0 mm 39 W/m2
10:55 15.6 °C 14.1 °C 1017.5 hPa North 6.4 km/h 14.5 km/h 91 % 0.0 mm 74 W/m2
11:00 15.6 °C 14.3 °C 1017.5 hPa North 6.4 km/h 14.5 km/h 92 % 0.0 mm 84 W/m2
11:05 15.6 °C 14.3 °C 1017.5 hPa North 6.4 km/h 12.9 km/h 92 % 0.0 mm 72 W/m2
11:10 15.6 °C 14.5 °C 1017.5 hPa Calm   11.3 km/h 93 % 0.0 mm 72 W/m2
11:15 15.6 °C 14.4 °C 1017.5 hPa North 1.6 km/h 9.7 km/h 93 % 0.0 mm 69 W/m2
11:20 15.6 °C 14.6 °C 1017.5 hPa North 4.8 km/h 9.7 km/h 94 % 0.0 mm 88 W/m2
11:25 15.7 °C 14.7 °C 1017.5 hPa NNE 3.2 km/h 8.0 km/h 94 % 0.0 mm 107 W/m2
11:30 15.7 °C 14.6 °C 1017.5 hPa North 4.8 km/h 11.3 km/h 93 % 0.0 mm 165 W/m2
11:35 16.1 °C 15.1 °C 1017.5 hPa NNW 4.8 km/h 11.3 km/h 94 % 0.0 mm 209 W/m2
11:40 16.1 °C 15.0 °C 1017.5 hPa NE 6.4 km/h 14.5 km/h 93 % 0.0 mm 306 W/m2
11:45 16.3 °C 15.0 °C 1017.5 hPa North 4.8 km/h 17.7 km/h 92 % 0.0 mm 251 W/m2
11:50 16.3 °C 14.7 °C 1017.5 hPa NE 8.0 km/h 17.7 km/h 90 % 0.0 mm 302 W/m2
11:55 16.8 °C 15.1 °C 1017.5 hPa North 4.8 km/h 12.9 km/h 90 % 0.0 mm 306 W/m2
12:00 17.0 °C 15.2 °C 1017.8 hPa ENE 4.8 km/h 12.9 km/h 89 % 0.0 mm 262 W/m2
12:05 17.0 °C 15.0 °C 1017.8 hPa NNE 3.2 km/h 12.9 km/h 88 % 0.0 mm 322 W/m2
12:10 17.1 °C 15.1 °C 1017.8 hPa NNE 9.7 km/h 12.9 km/h 88 % 0.0 mm 327 W/m2
12:15 17.2 °C 14.8 °C 1017.5 hPa WNW 1.6 km/h 12.9 km/h 86 % 0.0 mm 241 W/m2
12:20 17.2 °C 14.8 °C 1017.8 hPa North 4.8 km/h 12.9 km/h 86 % 0.0 mm 141 W/m2
12:25 16.9 °C 14.8 °C 1017.5 hPa NW 4.8 km/h 17.7 km/h 87 % 0.0 mm 72 W/m2
12:30 16.4 °C 14.4 °C 1017.8 hPa NNW 6.4 km/h 17.7 km/h 88 % 0.0 mm 90 W/m2
12:35 16.1 °C 14.5 °C 1017.8 hPa North 3.2 km/h 16.1 km/h 90 % 0.0 mm 135 W/m2
12:40 16.1 °C 14.6 °C 1017.8 hPa NNW 4.8 km/h 14.5 km/h 91 % 0.0 mm 174 W/m2
12:45 15.9 °C 14.5 °C 1017.8 hPa North 9.7 km/h 16.1 km/h 91 % 0.0 mm 185 W/m2
12:50 15.6 °C 14.1 °C 1017.8 hPa NE 8.0 km/h 20.9 km/h 91 % 0.0 mm 158 W/m2
12:55 15.5 °C 14.0 °C 1017.8 hPa North 9.7 km/h 20.9 km/h 91 % 0.0 mm 130 W/m2
13:00 15.4 °C 14.1 °C 1018.2 hPa NNW 9.7 km/h 17.7 km/h 92 % 0.0 mm 195 W/m2
13:05 15.4 °C 14.1 °C 1018.2 hPa North 4.8 km/h 17.7 km/h 92 % 0.0 mm 258 W/m2
13:10 15.5 °C 14.2 °C 1018.2 hPa North 8.0 km/h 17.7 km/h 92 % 0.0 mm 297 W/m2
13:15 15.9 °C 14.6 °C 1018.2 hPa North 4.8 km/h 17.7 km/h 92 % 0.0 mm 343 W/m2
13:20 16.3 °C 15.1 °C 1017.8 hPa NW 3.2 km/h 14.5 km/h 93 % 0.0 mm 380 W/m2
13:25 16.5 °C 14.9 °C 1017.8 hPa NNE 9.7 km/h 14.5 km/h 90 % 0.0 mm 283 W/m2
13:30 16.4 °C 14.6 °C 1018.2 hPa North 3.2 km/h 16.1 km/h 89 % 0.0 mm 158 W/m2
13:35 16.2 °C 14.2 °C 1018.2 hPa NNE 8.0 km/h 17.7 km/h 88 % 0.0 mm 127 W/m2
13:40 16.0 °C 14.2 °C 1018.2 hPa NNE 3.2 km/h 17.7 km/h 89 % 0.0 mm 120 W/m2
13:45 15.9 °C 14.1 °C 1017.8 hPa NW 1.6 km/h 12.9 km/h 89 % 0.0 mm 128 W/m2
13:50 15.9 °C 14.1 °C 1017.8 hPa NW 4.8 km/h 12.9 km/h 89 % 0.0 mm 120 W/m2
13:55 15.9 °C 14.1 °C 1017.8 hPa NNE 9.7 km/h 12.9 km/h 89 % 0.0 mm 163 W/m2
14:00 16.1 °C 14.3 °C 1017.8 hPa WNW 11.3 km/h 14.5 km/h 89 % 0.0 mm 236 W/m2
14:05 16.4 °C 14.6 °C 1017.8 hPa North 4.8 km/h 17.7 km/h 89 % 0.0 mm 248 W/m2
14:10 16.6 °C 14.4 °C 1017.8 hPa NW 4.8 km/h 17.7 km/h 87 % 0.0 mm 236 W/m2
14:15 16.6 °C 14.3 °C 1017.8 hPa West 8.0 km/h 12.9 km/h 86 % 0.0 mm 234 W/m2
14:20 16.8 °C 14.6 °C 1017.8 hPa Calm   11.3 km/h 87 % 0.0 mm 251 W/m2
14:25 17.0 °C 14.8 °C 1017.8 hPa North 4.8 km/h 9.7 km/h 87 % 0.0 mm 369 W/m2
14:30 17.2 °C 14.3 °C 1017.5 hPa North 4.8 km/h 11.3 km/h 83 % 0.0 mm 413 W/m2
14:35 17.4 °C 14.5 °C 1017.5 hPa NW 6.4 km/h 11.3 km/h 83 % 0.0 mm 555 W/m2
14:40 17.9 °C 14.8 °C 1017.5 hPa North 8.0 km/h 11.3 km/h 82 % 0.0 mm 436 W/m2
14:45 17.7 °C 14.6 °C 1017.5 hPa NNW 4.8 km/h 11.3 km/h 82 % 0.0 mm 366 W/m2
14:50 17.8 °C 14.7 °C 1017.5 hPa NNW 11.3 km/h 11.3 km/h 82 % 0.0 mm 503 W/m2
14:55 18.2 °C 14.7 °C 1017.5 hPa NNE 6.4 km/h 11.3 km/h 80 % 0.0 mm 392 W/m2
15:00 17.7 °C 14.4 °C 1017.5 hPa Calm   11.3 km/h 81 % 0.0 mm 439 W/m2
15:05 18.1 °C 14.6 °C 1017.5 hPa Calm   8.0 km/h 80 % 0.0 mm 501 W/m2
15:10 18.2 °C 14.7 °C 1017.5 hPa North 3.2 km/h 8.0 km/h 80 % 0.0 mm 352 W/m2
15:15 17.8 °C 14.1 °C 1017.5 hPa NW 3.2 km/h 8.0 km/h 79 % 0.0 mm 322 W/m2
15:20 17.7 °C 14.0 °C 1017.5 hPa WNW 3.2 km/h 8.0 km/h 79 % 0.0 mm 350 W/m2
15:25 17.6 °C 14.1 °C 1017.5 hPa West 3.2 km/h 8.0 km/h 80 % 0.0 mm 274 W/m2
15:30 17.6 °C 14.1 °C 1017.5 hPa West 8.0 km/h 9.7 km/h 80 % 0.0 mm 211 W/m2
15:35 17.4 °C 14.1 °C 1017.5 hPa Calm   9.7 km/h 81 % 0.0 mm 290 W/m2
15:40 17.8 °C 14.5 °C 1017.5 hPa Calm   8.0 km/h 81 % 0.0 mm 381 W/m2
15:45 18.6 °C 14.8 °C 1017.5 hPa West 3.2 km/h 6.4 km/h 79 % 0.0 mm 881 W/m2
15:50 19.3 °C 15.5 °C 1017.5 hPa WNW 3.2 km/h 6.4 km/h 79 % 0.0 mm 965 W/m2
15:55 19.6 °C 15.7 °C 1017.2 hPa WNW 3.2 km/h 9.7 km/h 78 % 0.0 mm 991 W/m2
16:00 19.4 °C 14.3 °C 1017.2 hPa West 8.0 km/h 11.3 km/h 72 % 0.0 mm 229 W/m2
16:05 18.7 °C 14.1 °C 1017.2 hPa West 6.4 km/h 12.9 km/h 75 % 0.0 mm 369 W/m2
16:10 18.8 °C 14.3 °C 1017.2 hPa West 11.3 km/h 19.3 km/h 75 % 0.0 mm 772 W/m2
16:15 19.4 °C 14.9 °C 1017.5 hPa WSW 9.7 km/h 19.3 km/h 75 % 0.0 mm 766 W/m2
16:20 19.2 °C 13.1 °C 1017.5 hPa West 6.4 km/h 17.7 km/h 68 % 0.0 mm 838 W/m2
16:25 19.1 °C 13.7 °C 1017.5 hPa West 6.4 km/h 16.1 km/h 71 % 0.0 mm 557 W/m2
16:30 18.8 °C 13.2 °C 1017.5 hPa WNW 8.0 km/h 17.7 km/h 70 % 0.0 mm 214 W/m2
16:35 18.8 °C 13.0 °C 1017.5 hPa NW 12.9 km/h 22.5 km/h 69 % 0.0 mm 863 W/m2
16:40 19.6 °C 13.8 °C 1017.5 hPa WNW 16.1 km/h 22.5 km/h 69 % 0.0 mm 872 W/m2
16:45 19.9 °C 13.9 °C 1017.2 hPa WNW 8.0 km/h 22.5 km/h 68 % 0.0 mm 810 W/m2
16:50 19.8 °C 12.8 °C 1017.5 hPa WNW 11.3 km/h 24.1 km/h 64 % 0.0 mm 754 W/m2
16:55 19.6 °C 12.8 °C 1017.2 hPa West 9.7 km/h 24.1 km/h 65 % 0.0 mm 761 W/m2
17:00 19.9 °C 13.4 °C 1017.2 hPa WNW 4.8 km/h 20.9 km/h 66 % 0.0 mm 731 W/m2
17:05 20.3 °C 13.2 °C 1017.2 hPa WNW 19.3 km/h 25.7 km/h 64 % 0.0 mm 714 W/m2
17:10 20.1 °C 13.3 °C 1017.2 hPa NW 20.9 km/h 25.7 km/h 65 % 0.0 mm 698 W/m2
17:15 20.1 °C 14.0 °C 1017.5 hPa WSW 9.7 km/h 24.1 km/h 68 % 0.0 mm 684 W/m2
17:20 20.0 °C 13.0 °C 1017.2 hPa NW 9.7 km/h 24.1 km/h 64 % 0.0 mm 671 W/m2
17:25 20.1 °C 13.5 °C 1017.2 hPa West 14.5 km/h 27.4 km/h 66 % 0.0 mm 659 W/m2
17:30 20.3 °C 12.8 °C 1017.5 hPa WNW 9.7 km/h 27.4 km/h 62 % 0.0 mm 656 W/m2
17:35 19.9 °C 13.1 °C 1017.5 hPa NW 8.0 km/h 24.1 km/h 65 % 0.0 mm 450 W/m2
17:40 19.5 °C 13.2 °C 1017.5 hPa WNW 6.4 km/h 24.1 km/h 67 % 0.0 mm 605 W/m2
17:45 19.7 °C 12.9 °C 1017.5 hPa WNW 6.4 km/h 24.1 km/h 65 % 0.0 mm 613 W/m2
17:50 20.0 °C 13.0 °C 1017.5 hPa WNW 8.0 km/h 20.9 km/h 64 % 0.0 mm 592 W/m2
17:55 20.0 °C 13.0 °C 1017.5 hPa WNW 12.9 km/h 19.3 km/h 64 % 0.0 mm 578 W/m2
18:00 19.9 °C 12.6 °C 1017.5 hPa NW 17.7 km/h 19.3 km/h 63 % 0.0 mm 555 W/m2
18:05 19.9 °C 13.2 °C 1017.5 hPa SW 6.4 km/h 19.3 km/h 65 % 0.0 mm 541 W/m2
18:10 20.0 °C 13.0 °C 1017.5 hPa NW 12.9 km/h 25.7 km/h 64 % 0.0 mm 524 W/m2
18:15 20.1 °C 12.5 °C 1017.5 hPa WNW 12.9 km/h 25.7 km/h 62 % 0.0 mm 515 W/m2
18:20 19.9 °C 13.1 °C 1017.5 hPa West 11.3 km/h 22.5 km/h 65 % 0.0 mm 501 W/m2
18:25 19.9 °C 13.1 °C 1017.5 hPa NW 11.3 km/h 22.5 km/h 65 % 0.0 mm 487 W/m2
18:30 19.8 °C 13.2 °C 1017.5 hPa West 11.3 km/h 19.3 km/h 66 % 0.0 mm 471 W/m2
18:35 19.7 °C 13.2 °C 1017.5 hPa NW 8.0 km/h 19.3 km/h 66 % 0.0 mm 459 W/m2
18:40 19.8 °C 13.7 °C 1017.5 hPa WNW 14.5 km/h 17.7 km/h 68 % 0.0 mm 445 W/m2
18:45 19.4 °C 12.7 °C 1017.5 hPa WNW 11.3 km/h 24.1 km/h 65 % 0.0 mm 429 W/m2
18:50 19.6 °C 13.3 °C 1017.2 hPa WNW 14.5 km/h 30.6 km/h 67 % 0.0 mm 418 W/m2
18:55 19.3 °C 12.3 °C 1017.5 hPa NW 16.1 km/h 30.6 km/h 64 % 0.0 mm 406 W/m2
19:00 19.2 °C 12.9 °C 1017.5 hPa NW 8.0 km/h 25.7 km/h 67 % 0.0 mm 388 W/m2
19:05 19.3 °C 13.0 °C 1017.5 hPa WNW 19.3 km/h 22.5 km/h 67 % 0.0 mm 373 W/m2
19:15 18.9 °C 12.7 °C 1017.5 hPa WNW 6.4 km/h 25.7 km/h 67 % 0.0 mm 343 W/m2
19:20 18.8 °C 13.0 °C 1017.5 hPa WNW 14.5 km/h 25.7 km/h 69 % 0.0 mm 329 W/m2
19:25 18.6 °C 12.8 °C 1017.5 hPa WNW 19.3 km/h 29.0 km/h 69 % 0.0 mm 315 W/m2
19:30 18.4 °C 12.8 °C 1017.5 hPa WNW 9.7 km/h 29.0 km/h 70 % 0.0 mm 299 W/m2
19:35 18.4 °C 13.3 °C 1017.5 hPa NW 12.9 km/h 25.7 km/h 72 % 0.0 mm 279 W/m2
19:40 18.4 °C 13.1 °C 1017.5 hPa NW 11.3 km/h 25.7 km/h 71 % 0.0 mm 255 W/m2
19:45 18.2 °C 12.4 °C 1017.5 hPa NW 19.3 km/h 38.6 km/h 69 % 0.0 mm 229 W/m2
19:50 17.9 °C 12.4 °C 1017.5 hPa WNW 8.0 km/h 38.6 km/h 70 % 0.0 mm 206 W/m2
19:55 17.9 °C 12.6 °C 1017.5 hPa West 12.9 km/h 27.4 km/h 71 % 0.0 mm 188 W/m2
20:00 17.7 °C 12.3 °C 1017.5 hPa NNW 14.5 km/h 30.6 km/h 71 % 0.0 mm 178 W/m2
20:05 17.6 °C 12.4 °C 1017.5 hPa WNW 12.9 km/h 30.6 km/h 72 % 0.0 mm 172 W/m2
20:10 17.4 °C 12.6 °C 1017.5 hPa NW 9.7 km/h 29.0 km/h 73 % 0.0 mm 165 W/m2
20:15 17.4 °C 12.5 °C 1017.8 hPa WNW 9.7 km/h 29.0 km/h 73 % 0.0 mm 151 W/m2
20:20 17.2 °C 12.3 °C 1017.5 hPa WNW 8.0 km/h 29.0 km/h 73 % 0.0 mm 128 W/m2
20:25 17.1 °C 12.4 °C 1017.5 hPa West 20.9 km/h 27.4 km/h 74 % 0.0 mm 113 W/m2
20:30 17.1 °C 12.4 °C 1017.8 hPa NW 22.5 km/h 27.4 km/h 74 % 0.0 mm 102 W/m2
20:35 16.9 °C 12.3 °C 1017.8 hPa NNW 16.1 km/h 24.1 km/h 74 % 0.0 mm 67 W/m2
20:40 16.8 °C 12.4 °C 1017.8 hPa NW 19.3 km/h 27.4 km/h 75 % 0.0 mm 39 W/m2
20:45 16.7 °C 12.4 °C 1017.8 hPa WNW 14.5 km/h 27.4 km/h 76 % 0.0 mm 32 W/m2
20:50 16.6 °C 12.3 °C 1017.8 hPa West 11.3 km/h 30.6 km/h 76 % 0.0 mm 30 W/m2
20:55 16.4 °C 12.4 °C 1017.8 hPa WNW 19.3 km/h 30.6 km/h 77 % 0.0 mm 28 W/m2
21:00 16.3 °C 12.3 °C 1017.8 hPa WNW 17.7 km/h 25.7 km/h 77 % 0.0 mm 26 W/m2
21:05 16.3 °C 12.4 °C 1018.2 hPa WNW 12.9 km/h 27.4 km/h 78 % 0.0 mm 25 W/m2
21:10 16.1 °C 12.2 °C 1018.2 hPa NW 20.9 km/h 33.8 km/h 78 % 0.0 mm 21 W/m2
21:15 16.0 °C 12.0 °C 1018.2 hPa West 12.9 km/h 33.8 km/h 77 % 0.0 mm 19 W/m2
21:20 15.8 °C 11.8 °C 1018.5 hPa NE 4.8 km/h 24.1 km/h 77 % 0.0 mm 18 W/m2
21:25 15.8 °C 11.6 °C 1018.5 hPa West 11.3 km/h 32.2 km/h 76 % 0.0 mm 16 W/m2
21:30 15.7 °C 11.5 °C 1018.5 hPa NW 22.5 km/h 32.2 km/h 76 % 0.0 mm 14 W/m2
21:35 15.7 °C 11.5 °C 1018.5 hPa WNW 9.7 km/h 25.7 km/h 76 % 0.0 mm 12 W/m2
21:40 15.7 °C 11.6 °C 1018.5 hPa NW 8.0 km/h 27.4 km/h 77 % 0.0 mm 11 W/m2
21:45 15.6 °C 11.5 °C 1018.5 hPa WNW 8.0 km/h 27.4 km/h 77 % 0.0 mm 9 W/m2
21:50 15.4 °C 11.6 °C 1018.5 hPa WNW 11.3 km/h 22.5 km/h 78 % 0.0 mm 7 W/m2
21:55 15.3 °C 11.5 °C 1018.5 hPa WSW 9.7 km/h 22.5 km/h 78 % 0.0 mm 5 W/m2
22:00 15.3 °C 11.7 °C 1018.5 hPa NW 14.5 km/h 19.3 km/h 79 % 0.0 mm 0 W/m2
22:05 15.2 °C 11.5 °C 1018.5 hPa WNW 9.7 km/h 17.7 km/h 79 % 0.0 mm 0 W/m2
22:10 15.2 °C 11.5 °C 1018.8 hPa NNW 8.0 km/h 17.7 km/h 79 % 0.0 mm 0 W/m2
22:15 15.1 °C 11.5 °C 1018.8 hPa WSW 12.9 km/h 24.1 km/h 79 % 0.0 mm 0 W/m2
22:20 14.9 °C 11.5 °C 1018.8 hPa NNW 14.5 km/h 24.1 km/h 80 % 0.0 mm 0 W/m2
22:25 14.9 °C 11.5 °C 1018.8 hPa NW 12.9 km/h 19.3 km/h 80 % 0.0 mm 0 W/m2
22:30 14.9 °C 11.5 °C 1018.8 hPa WSW 6.4 km/h 20.9 km/h 80 % 0.0 mm 0 W/m2
22:40 15.0 °C 11.8 °C 1019.2 hPa West 4.8 km/h 20.9 km/h 81 % 0.0 mm 0 W/m2
22:45 14.9 °C 11.9 °C 1019.2 hPa NNW 6.4 km/h 20.9 km/h 82 % 0.0 mm 0 W/m2
22:50 14.9 °C 11.8 °C 1019.2 hPa WNW 8.0 km/h 19.3 km/h 82 % 0.0 mm 0 W/m2
22:55 14.8 °C 11.8 °C 1019.2 hPa NW 9.7 km/h 20.9 km/h 82 % 0.0 mm 0 W/m2
23:00 14.8 °C 11.9 °C 1019.2 hPa WNW 9.7 km/h 20.9 km/h 83 % 0.0 mm 0 W/m2
23:05 14.8 °C 12.0 °C 1019.5 hPa WNW 6.4 km/h 19.3 km/h 83 % 0.0 mm 0 W/m2
23:10 14.7 °C 11.9 °C 1019.2 hPa NW 9.7 km/h 19.3 km/h 83 % 0.0 mm 0 W/m2
23:15 14.6 °C 11.8 °C 1019.5 hPa NNW 6.4 km/h 19.3 km/h 83 % 0.0 mm 0 W/m2
23:20 14.6 °C 11.9 °C 1019.5 hPa NW 11.3 km/h 19.3 km/h 84 % 0.0 mm 0 W/m2
23:25 14.6 °C 11.9 °C 1019.5 hPa WNW 8.0 km/h 19.3 km/h 84 % 0.0 mm 0 W/m2
23:30 14.6 °C 11.9 °C 1019.5 hPa West 8.0 km/h 19.3 km/h 84 % 0.0 mm 0 W/m2
23:35 14.6 °C 11.9 °C 1019.5 hPa WNW 11.3 km/h 19.3 km/h 84 % 0.0 mm 0 W/m2
23:40 14.5 °C 11.8 °C 1019.5 hPa NW 4.8 km/h 14.5 km/h 84 % 0.0 mm 0 W/m2
23:45 14.3 °C 11.8 °C 1019.5 hPa NW 3.2 km/h 12.9 km/h 85 % 0.0 mm 0 W/m2
23:50 14.1 °C 11.8 °C 1019.5 hPa NNW 4.8 km/h 12.9 km/h 86 % 0.0 mm 0 W/m2
23:55 13.9 °C 11.6 °C 1019.5 hPa NNW 4.8 km/h 12.9 km/h 86 % 0.0 mm 0 W/m2
Avec l'autorisation de Weather Underground - 1.75 mb